sensor_id;sensor_type;location;lat;lon;timestamp;temperature;humidity
21778;DHT22;11050;52.222;20.916;2023-02-22T00:00:25;4.40;99.90
21778;DHT22;11050;52.222;20.916;2023-02-22T00:03:19;4.40;99.90
21778;DHT22;11050;52.222;20.916;2023-02-22T00:05:54;4.40;99.90
21778;DHT22;11050;52.222;20.916;2023-02-22T00:08:24;4.30;99.90
21778;DHT22;11050;52.222;20.916;2023-02-22T00:10:59;4.30;99.90
21778;DHT22;11050;52.222;20.916;2023-02-22T00:13:28;4.20;99.90
21778;DHT22;11050;52.222;20.916;2023-02-22T00:15:57;4.10;99.90
21778;DHT22;11050;52.222;20.916;2023-02-22T00:18:24;4.00;99.90
21778;DHT22;11050;52.222;20.916;2023-02-22T00:20:56;4.00;99.90
21778;DHT22;11050;52.222;20.916;2023-02-22T00:23:28;3.90;99.90
21778;DHT22;11050;52.222;20.916;2023-02-22T00:25:55;3.80;99.90
21778;DHT22;11050;52.222;20.916;2023-02-22T00:28:22;3.70;99.90
21778;DHT22;11050;52.222;20.916;2023-02-22T00:30:49;3.60;99.90
21778;DHT22;11050;52.222;20.916;2023-02-22T00:33:16;3.50;99.90
21778;DHT22;11050;52.222;20.916;2023-02-22T00:35:43;3.50;99.90
21778;DHT22;11050;52.222;20.916;2023-02-22T00:38:14;3.40;99.90
21778;DHT22;11050;52.222;20.916;2023-02-22T00:40:42;3.40;99.90
21778;DHT22;11050;52.222;20.916;2023-02-22T00:43:07;3.30;99.90
21778;DHT22;11050;52.222;20.916;2023-02-22T00:45:35;3.20;99.90
21778;DHT22;11050;52.222;20.916;2023-02-22T00:48:02;3.10;99.90
21778;DHT22;11050;52.222;20.916;2023-02-22T00:50:30;3.10;99.90
21778;DHT22;11050;52.222;20.916;2023-02-22T00:52:58;3.00;99.90
21778;DHT22;11050;52.222;20.916;2023-02-22T00:55:31;2.90;99.90
21778;DHT22;11050;52.222;20.916;2023-02-22T00:58:00;2.90;99.90
21778;DHT22;11050;52.222;20.916;2023-02-22T01:00:32;2.80;99.90
21778;DHT22;11050;52.222;20.916;2023-02-22T01:03:01;2.80;99.90
21778;DHT22;11050;52.222;20.916;2023-02-22T01:05:29;2.80;99.90
21778;DHT22;11050;52.222;20.916;2023-02-22T01:07:58;2.70;99.90
21778;DHT22;11050;52.222;20.916;2023-02-22T01:10:27;2.70;99.90
21778;DHT22;11050;52.222;20.916;2023-02-22T01:12:56;2.60;99.90
21778;DHT22;11050;52.222;20.916;2023-02-22T01:15:24;2.60;99.90
21778;DHT22;11050;52.222;20.916;2023-02-22T01:17:53;2.50;99.90
21778;DHT22;11050;52.222;20.916;2023-02-22T01:20:21;2.50;99.90
21778;DHT22;11050;52.222;20.916;2023-02-22T01:22:49;2.50;99.90
21778;DHT22;11050;52.222;20.916;2023-02-22T01:25:21;2.40;99.90
21778;DHT22;11050;52.222;20.916;2023-02-22T01:27:50;2.40;99.90
21778;DHT22;11050;52.222;20.916;2023-02-22T01:30:20;2.30;99.90
21778;DHT22;11050;52.222;20.916;2023-02-22T01:32:50;2.30;99.90
21778;DHT22;11050;52.222;20.916;2023-02-22T01:35:18;2.20;99.90
21778;DHT22;11050;52.222;20.916;2023-02-22T01:37:48;2.20;99.90
21778;DHT22;11050;52.222;20.916;2023-02-22T01:40:21;2.20;99.90
21778;DHT22;11050;52.222;20.916;2023-02-22T01:42:55;2.20;99.90
21778;DHT22;11050;52.222;20.916;2023-02-22T01:50:34;2.20;99.90
21778;DHT22;11050;52.222;20.916;2023-02-22T01:53:05;2.10;99.90
21778;DHT22;11050;52.222;20.916;2023-02-22T01:55:34;2.20;99.90
21778;DHT22;11050;52.222;20.916;2023-02-22T01:58:01;2.10;99.90
21778;DHT22;11050;52.222;20.916;2023-02-22T02:00:29;2.10;99.90
21778;DHT22;11050;52.222;20.916;2023-02-22T02:02:58;2.10;99.90
21778;DHT22;11050;52.222;20.916;2023-02-22T02:05:28;2.10;99.90
21778;DHT22;11050;52.222;20.916;2023-02-22T02:07:58;2.10;99.90
21778;DHT22;11050;52.222;20.916;2023-02-22T02:10:38;2.10;99.90
21778;DHT22;11050;52.222;20.916;2023-02-22T02:13:04;2.10;99.90
21778;DHT22;11050;52.222;20.916;2023-02-22T02:15:32;2.10;99.90
21778;DHT22;11050;52.222;20.916;2023-02-22T02:18:09;2.10;99.90
21778;DHT22;11050;52.222;20.916;2023-02-22T02:32:38;2.10;99.90
21778;DHT22;11050;52.222;20.916;2023-02-22T02:38:11;2.10;99.90
21778;DHT22;11050;52.222;20.916;2023-02-22T02:41:20;2.00;99.90
21778;DHT22;11050;52.222;20.916;2023-02-22T02:44:14;2.00;99.90
21778;DHT22;11050;52.222;20.916;2023-02-22T02:46:57;1.90;99.90
21778;DHT22;11050;52.222;20.916;2023-02-22T02:49:35;1.80;99.90
21778;DHT22;11050;52.222;20.916;2023-02-22T02:52:07;1.80;99.90
21778;DHT22;11050;52.222;20.916;2023-02-22T02:54:37;1.80;99.90
21778;DHT22;11050;52.222;20.916;2023-02-22T02:57:04;1.70;99.90
21778;DHT22;11050;52.222;20.916;2023-02-22T02:59:33;1.70;99.90
21778;DHT22;11050;52.222;20.916;2023-02-22T03:07:30;1.70;99.90
21778;DHT22;11050;52.222;20.916;2023-02-22T03:19:09;1.60;99.90
21778;DHT22;11050;52.222;20.916;2023-02-22T03:21:54;1.60;99.90
21778;DHT22;11050;52.222;20.916;2023-02-22T03:24:31;1.50;99.90
21778;DHT22;11050;52.222;20.916;2023-02-22T03:30:24;1.50;99.90
21778;DHT22;11050;52.222;20.916;2023-02-22T03:33:04;1.50;99.90
21778;DHT22;11050;52.222;20.916;2023-02-22T03:35:43;1.50;99.90
21778;DHT22;11050;52.222;20.916;2023-02-22T03:38:16;1.60;99.90
21778;DHT22;11050;52.222;20.916;2023-02-22T03:40:48;1.60;99.90
21778;DHT22;11050;52.222;20.916;2023-02-22T03:43:23;1.60;99.90
21778;DHT22;11050;52.222;20.916;2023-02-22T03:45:54;1.70;99.90
21778;DHT22;11050;52.222;20.916;2023-02-22T03:51:33;1.70;99.90
21778;DHT22;11050;52.222;20.916;2023-02-22T03:54:00;1.70;99.90
21778;DHT22;11050;52.222;20.916;2023-02-22T03:56:32;1.80;99.90
21778;DHT22;11050;52.222;20.916;2023-02-22T03:59:06;1.80;99.90
21778;DHT22;11050;52.222;20.916;2023-02-22T04:01:35;1.80;99.90
21778;DHT22;11050;52.222;20.916;2023-02-22T04:04:01;1.80;99.90
21778;DHT22;11050;52.222;20.916;2023-02-22T04:06:59;1.90;99.90
21778;DHT22;11050;52.222;20.916;2023-02-22T04:09:25;2.00;99.90
21778;DHT22;11050;52.222;20.916;2023-02-22T04:11:51;2.00;99.90
21778;DHT22;11050;52.222;20.916;2023-02-22T04:14:17;2.10;99.90
21778;DHT22;11050;52.222;20.916;2023-02-22T04:16:43;2.00;99.90
21778;DHT22;11050;52.222;20.916;2023-02-22T04:19:08;2.10;99.90
21778;DHT22;11050;52.222;20.916;2023-02-22T04:21:34;2.10;99.90
21778;DHT22;11050;52.222;20.916;2023-02-22T04:24:00;2.10;99.90
21778;DHT22;11050;52.222;20.916;2023-02-22T04:26:26;2.20;99.90
21778;DHT22;11050;52.222;20.916;2023-02-22T04:28:52;2.20;99.90
21778;DHT22;11050;52.222;20.916;2023-02-22T04:31:17;2.30;99.90
21778;DHT22;11050;52.222;20.916;2023-02-22T04:33:43;2.30;99.90
21778;DHT22;11050;52.222;20.916;2023-02-22T04:36:10;2.30;99.90
21778;DHT22;11050;52.222;20.916;2023-02-22T04:38:35;2.40;99.90
21778;DHT22;11050;52.222;20.916;2023-02-22T04:41:01;2.40;99.90
21778;DHT22;11050;52.222;20.916;2023-02-22T04:43:27;2.40;99.90
21778;DHT22;11050;52.222;20.916;2023-02-22T04:45:53;2.40;99.90
21778;DHT22;11050;52.222;20.916;2023-02-22T04:48:18;2.40;99.90
21778;DHT22;11050;52.222;20.916;2023-02-22T04:50:44;2.40;99.90
21778;DHT22;11050;52.222;20.916;2023-02-22T04:53:11;2.40;99.90
21778;DHT22;11050;52.222;20.916;2023-02-22T04:55:37;2.40;99.90
21778;DHT22;11050;52.222;20.916;2023-02-22T04:58:03;2.40;99.90
21778;DHT22;11050;52.222;20.916;2023-02-22T05:00:28;2.40;99.90
21778;DHT22;11050;52.222;20.916;2023-02-22T05:02:54;2.40;99.90
21778;DHT22;11050;52.222;20.916;2023-02-22T05:05:20;2.40;99.90
21778;DHT22;11050;52.222;20.916;2023-02-22T05:07:49;2.30;99.90
21778;DHT22;11050;52.222;20.916;2023-02-22T05:10:16;2.30;99.90
21778;DHT22;11050;52.222;20.916;2023-02-22T05:12:41;2.30;99.90
21778;DHT22;11050;52.222;20.916;2023-02-22T05:15:08;2.30;99.90
21778;DHT22;11050;52.222;20.916;2023-02-22T05:17:34;2.30;99.90
21778;DHT22;11050;52.222;20.916;2023-02-22T05:20:01;2.20;99.90
21778;DHT22;11050;52.222;20.916;2023-02-22T05:22:28;2.20;99.90
21778;DHT22;11050;52.222;20.916;2023-02-22T05:24:54;2.20;99.90
21778;DHT22;11050;52.222;20.916;2023-02-22T05:27:21;2.20;99.90
21778;DHT22;11050;52.222;20.916;2023-02-22T05:29:47;2.20;99.90
21778;DHT22;11050;52.222;20.916;2023-02-22T05:32:13;2.10;99.90
21778;DHT22;11050;52.222;20.916;2023-02-22T05:34:39;2.10;99.90
21778;DHT22;11050;52.222;20.916;2023-02-22T05:37:05;2.10;99.90
21778;DHT22;11050;52.222;20.916;2023-02-22T05:39:31;2.10;99.90
21778;DHT22;11050;52.222;20.916;2023-02-22T05:41:57;2.10;99.90
21778;DHT22;11050;52.222;20.916;2023-02-22T05:44:23;2.10;99.90
21778;DHT22;11050;52.222;20.916;2023-02-22T05:46:49;2.10;99.90
21778;DHT22;11050;52.222;20.916;2023-02-22T05:49:15;2.10;99.90
21778;DHT22;11050;52.222;20.916;2023-02-22T05:51:40;2.00;99.90
21778;DHT22;11050;52.222;20.916;2023-02-22T05:54:07;2.10;99.90
21778;DHT22;11050;52.222;20.916;2023-02-22T05:56:32;2.10;99.90
21778;DHT22;11050;52.222;20.916;2023-02-22T05:58:58;2.10;99.90
21778;DHT22;11050;52.222;20.916;2023-02-22T06:01:24;2.10;99.90
21778;DHT22;11050;52.222;20.916;2023-02-22T06:03:51;2.10;99.90
21778;DHT22;11050;52.222;20.916;2023-02-22T06:06:18;2.10;99.90
21778;DHT22;11050;52.222;20.916;2023-02-22T06:08:44;2.10;99.90
21778;DHT22;11050;52.222;20.916;2023-02-22T06:11:11;2.10;99.90
21778;DHT22;11050;52.222;20.916;2023-02-22T06:13:37;2.20;99.90
21778;DHT22;11050;52.222;20.916;2023-02-22T06:16:04;2.20;99.90
21778;DHT22;11050;52.222;20.916;2023-02-22T06:18:31;2.20;99.90
21778;DHT22;11050;52.222;20.916;2023-02-22T06:20:58;2.30;99.90
21778;DHT22;11050;52.222;20.916;2023-02-22T06:23:25;2.20;99.90
21778;DHT22;11050;52.222;20.916;2023-02-22T06:25:51;2.30;99.90
21778;DHT22;11050;52.222;20.916;2023-02-22T06:28:17;2.40;99.90
21778;DHT22;11050;52.222;20.916;2023-02-22T06:30:43;2.40;99.90
21778;DHT22;11050;52.222;20.916;2023-02-22T06:33:09;2.40;99.90
21778;DHT22;11050;52.222;20.916;2023-02-22T06:35:35;2.40;99.90
21778;DHT22;11050;52.222;20.916;2023-02-22T06:38:02;2.50;99.90
21778;DHT22;11050;52.222;20.916;2023-02-22T06:40:28;2.50;99.90
21778;DHT22;11050;52.222;20.916;2023-02-22T06:42:55;2.50;99.90
21778;DHT22;11050;52.222;20.916;2023-02-22T06:45:22;2.60;99.90
21778;DHT22;11050;52.222;20.916;2023-02-22T06:47:48;2.60;99.90
21778;DHT22;11050;52.222;20.916;2023-02-22T06:50:29;2.60;99.90
21778;DHT22;11050;52.222;20.916;2023-02-22T06:52:56;2.60;99.90
21778;DHT22;11050;52.222;20.916;2023-02-22T06:55:28;2.70;99.90
21778;DHT22;11050;52.222;20.916;2023-02-22T06:57:56;2.70;99.90
21778;DHT22;11050;52.222;20.916;2023-02-22T07:00:24;2.70;99.90
21778;DHT22;11050;52.222;20.916;2023-02-22T07:02:52;2.70;99.90
21778;DHT22;11050;52.222;20.916;2023-02-22T07:05:20;2.80;99.90
21778;DHT22;11050;52.222;20.916;2023-02-22T07:07:48;2.70;99.90
21778;DHT22;11050;52.222;20.916;2023-02-22T07:10:25;2.80;99.90
21778;DHT22;11050;52.222;20.916;2023-02-22T07:12:52;2.80;99.90
21778;DHT22;11050;52.222;20.916;2023-02-22T07:15:20;2.90;99.90
21778;DHT22;11050;52.222;20.916;2023-02-22T07:17:48;2.90;99.90
21778;DHT22;11050;52.222;20.916;2023-02-22T07:20:15;3.00;99.90
21778;DHT22;11050;52.222;20.916;2023-02-22T07:22:41;3.10;99.90
21778;DHT22;11050;52.222;20.916;2023-02-22T07:25:08;3.10;99.90
21778;DHT22;11050;52.222;20.916;2023-02-22T07:27:37;3.10;99.90
21778;DHT22;11050;52.222;20.916;2023-02-22T07:30:05;3.20;99.90
21778;DHT22;11050;52.222;20.916;2023-02-22T07:32:32;3.30;99.90
21778;DHT22;11050;52.222;20.916;2023-02-22T07:34:58;3.30;99.90
21778;DHT22;11050;52.222;20.916;2023-02-22T07:37:27;3.30;99.90
21778;DHT22;11050;52.222;20.916;2023-02-22T07:39:53;3.40;99.90
21778;DHT22;11050;52.222;20.916;2023-02-22T07:42:18;3.40;99.90
21778;DHT22;11050;52.222;20.916;2023-02-22T07:44:44;3.50;99.90
21778;DHT22;11050;52.222;20.916;2023-02-22T07:47:09;3.50;99.90
21778;DHT22;11050;52.222;20.916;2023-02-22T07:49:37;3.60;99.90
21778;DHT22;11050;52.222;20.916;2023-02-22T07:52:02;3.60;99.90
21778;DHT22;11050;52.222;20.916;2023-02-22T07:54:28;3.70;99.90
21778;DHT22;11050;52.222;20.916;2023-02-22T07:56:54;3.80;99.90
21778;DHT22;11050;52.222;20.916;2023-02-22T07:59:19;3.80;99.90
21778;DHT22;11050;52.222;20.916;2023-02-22T08:01:48;3.90;99.90
21778;DHT22;11050;52.222;20.916;2023-02-22T08:04:14;3.90;99.90
21778;DHT22;11050;52.222;20.916;2023-02-22T08:06:40;4.00;99.90
21778;DHT22;11050;52.222;20.916;2023-02-22T08:09:06;4.00;99.90
21778;DHT22;11050;52.222;20.916;2023-02-22T08:11:32;4.10;99.90
21778;DHT22;11050;52.222;20.916;2023-02-22T08:13:58;4.10;99.90
21778;DHT22;11050;52.222;20.916;2023-02-22T08:16:23;4.20;99.90
21778;DHT22;11050;52.222;20.916;2023-02-22T08:18:49;4.20;99.90
21778;DHT22;11050;52.222;20.916;2023-02-22T08:21:15;4.20;99.90
21778;DHT22;11050;52.222;20.916;2023-02-22T08:23:41;4.20;99.90
21778;DHT22;11050;52.222;20.916;2023-02-22T08:26:09;4.20;99.90
21778;DHT22;11050;52.222;20.916;2023-02-22T08:28:39;4.20;99.90
21778;DHT22;11050;52.222;20.916;2023-02-22T08:31:05;4.30;99.90
21778;DHT22;11050;52.222;20.916;2023-02-22T08:33:33;4.30;99.90
21778;DHT22;11050;52.222;20.916;2023-02-22T08:36:00;4.40;99.90
21778;DHT22;11050;52.222;20.916;2023-02-22T08:38:30;4.40;99.90
21778;DHT22;11050;52.222;20.916;2023-02-22T08:40:58;4.40;99.90
21778;DHT22;11050;52.222;20.916;2023-02-22T08:43:24;4.50;99.90
21778;DHT22;11050;52.222;20.916;2023-02-22T08:45:50;4.50;99.90
21778;DHT22;11050;52.222;20.916;2023-02-22T08:48:18;4.50;99.90
21778;DHT22;11050;52.222;20.916;2023-02-22T08:50:44;4.50;99.90
21778;DHT22;11050;52.222;20.916;2023-02-22T08:53:12;4.40;99.90
21778;DHT22;11050;52.222;20.916;2023-02-22T08:55:40;4.50;99.90
21778;DHT22;11050;52.222;20.916;2023-02-22T08:58:07;4.50;99.90
21778;DHT22;11050;52.222;20.916;2023-02-22T09:00:33;4.50;99.90
21778;DHT22;11050;52.222;20.916;2023-02-22T09:03:03;4.50;99.90
21778;DHT22;11050;52.222;20.916;2023-02-22T09:05:31;4.60;99.90
21778;DHT22;11050;52.222;20.916;2023-02-22T09:07:57;4.60;99.90
21778;DHT22;11050;52.222;20.916;2023-02-22T09:10:27;4.70;99.90
21778;DHT22;11050;52.222;20.916;2023-02-22T09:12:56;4.80;99.90
21778;DHT22;11050;52.222;20.916;2023-02-22T09:15:23;4.90;99.90
21778;DHT22;11050;52.222;20.916;2023-02-22T09:17:50;4.90;99.90
21778;DHT22;11050;52.222;20.916;2023-02-22T09:20:19;4.90;99.90
21778;DHT22;11050;52.222;20.916;2023-02-22T09:22:48;4.90;99.90
21778;DHT22;11050;52.222;20.916;2023-02-22T09:25:14;5.00;99.90
21778;DHT22;11050;52.222;20.916;2023-02-22T09:27:41;5.00;99.90
21778;DHT22;11050;52.222;20.916;2023-02-22T09:30:11;5.00;99.90
21778;DHT22;11050;52.222;20.916;2023-02-22T09:32:41;5.00;99.90
21778;DHT22;11050;52.222;20.916;2023-02-22T09:35:07;5.00;99.90
21778;DHT22;11050;52.222;20.916;2023-02-22T09:37:33;4.90;99.90
21778;DHT22;11050;52.222;20.916;2023-02-22T09:39:59;4.90;99.90
21778;DHT22;11050;52.222;20.916;2023-02-22T09:42:31;4.80;99.90
21778;DHT22;11050;52.222;20.916;2023-02-22T09:45:13;4.80;99.90
21778;DHT22;11050;52.222;20.916;2023-02-22T09:47:54;4.70;99.90
21778;DHT22;11050;52.222;20.916;2023-02-22T09:50:27;4.70;99.90
21778;DHT22;11050;52.222;20.916;2023-02-22T09:53:01;4.70;99.90
21778;DHT22;11050;52.222;20.916;2023-02-22T09:55:37;4.60;99.90
21778;DHT22;11050;52.222;20.916;2023-02-22T09:58:25;4.70;99.90
21778;DHT22;11050;52.222;20.916;2023-02-22T10:01:09;4.70;99.90
21778;DHT22;11050;52.222;20.916;2023-02-22T10:07:13;4.70;99.90
21778;DHT22;11050;52.222;20.916;2023-02-22T10:09:43;4.60;99.90
21778;DHT22;11050;52.222;20.916;2023-02-22T10:23:33;4.40;99.90
21778;DHT22;11050;52.222;20.916;2023-02-22T10:28:51;4.20;99.90
21778;DHT22;11050;52.222;20.916;2023-02-22T10:31:27;4.10;99.90
21778;DHT22;11050;52.222;20.916;2023-02-22T10:34:01;3.90;99.90
21778;DHT22;11050;52.222;20.916;2023-02-22T10:36:30;3.70;99.90
21778;DHT22;11050;52.222;20.916;2023-02-22T10:39:03;3.60;99.90
21778;DHT22;11050;52.222;20.916;2023-02-22T10:41:57;3.40;99.90
21778;DHT22;11050;52.222;20.916;2023-02-22T10:44:34;3.40;99.90
21778;DHT22;11050;52.222;20.916;2023-02-22T10:47:04;3.30;99.90
21778;DHT22;11050;52.222;20.916;2023-02-22T10:49:57;3.20;99.90
21778;DHT22;11050;52.222;20.916;2023-02-22T10:52:32;3.20;99.90
21778;DHT22;11050;52.222;20.916;2023-02-22T10:55:00;3.10;99.90
21778;DHT22;11050;52.222;20.916;2023-02-22T10:57:34;3.10;99.90
21778;DHT22;11050;52.222;20.916;2023-02-22T11:00:43;3.10;99.90
21778;DHT22;11050;52.222;20.916;2023-02-22T11:03:19;3.20;99.90
21778;DHT22;11050;52.222;20.916;2023-02-22T11:05:48;3.30;99.90
21778;DHT22;11050;52.222;20.916;2023-02-22T11:10:42;3.60;99.90
21778;DHT22;11050;52.222;20.916;2023-02-22T11:13:37;3.80;99.90
21778;DHT22;11050;52.222;20.916;2023-02-22T11:16:31;4.00;99.90
21778;DHT22;11050;52.222;20.916;2023-02-22T11:19:25;4.20;99.90
21778;DHT22;11050;52.222;20.916;2023-02-22T11:22:17;4.30;99.90
21778;DHT22;11050;52.222;20.916;2023-02-22T11:27:41;4.50;99.90
21778;DHT22;11050;52.222;20.916;2023-02-22T11:33:21;4.60;99.90
21778;DHT22;11050;52.222;20.916;2023-02-22T11:38:30;4.80;99.60
21778;DHT22;11050;52.222;20.916;2023-02-22T11:43:52;4.90;98.60
21778;DHT22;11050;52.222;20.916;2023-02-22T11:46:22;4.90;97.90
21778;DHT22;11050;52.222;20.916;2023-02-22T11:48:59;5.00;97.50
21778;DHT22;11050;52.222;20.916;2023-02-22T11:51:42;5.10;97.50
21778;DHT22;11050;52.222;20.916;2023-02-22T11:57:24;5.10;95.70
21778;DHT22;11050;52.222;20.916;2023-02-22T12:17:09;4.90;93.10
21778;DHT22;11050;52.222;20.916;2023-02-22T12:19:46;4.90;93.60
21778;DHT22;11050;52.222;20.916;2023-02-22T12:22:27;5.00;93.10
21778;DHT22;11050;52.222;20.916;2023-02-22T12:27:57;5.00;93.20
21778;DHT22;11050;52.222;20.916;2023-02-22T12:30:38;5.10;93.20
21778;DHT22;11050;52.222;20.916;2023-02-22T12:33:14;5.10;92.80
21778;DHT22;11050;52.222;20.916;2023-02-22T12:35:53;5.10;92.70
21778;DHT22;11050;52.222;20.916;2023-02-22T12:38:39;5.20;92.70
21778;DHT22;11050;52.222;20.916;2023-02-22T12:41:26;5.10;91.60
21778;DHT22;11050;52.222;20.916;2023-02-22T12:44:00;5.10;91.90
21778;DHT22;11050;52.222;20.916;2023-02-22T12:46:33;5.10;91.40
21778;DHT22;11050;52.222;20.916;2023-02-22T12:49:09;5.00;91.00
21778;DHT22;11050;52.222;20.916;2023-02-22T12:58:17;4.90;90.90
21778;DHT22;11050;52.222;20.916;2023-02-22T13:03:37;4.80;90.50
21778;DHT22;11050;52.222;20.916;2023-02-22T13:06:26;4.70;90.00
21778;DHT22;11050;52.222;20.916;2023-02-22T13:12:31;4.60;90.30
21778;DHT22;11050;52.222;20.916;2023-02-22T13:20:43;4.40;90.50
21778;DHT22;11050;52.222;20.916;2023-02-22T13:26:27;4.30;90.50
21778;DHT22;11050;52.222;20.916;2023-02-22T13:29:19;4.30;91.10
21778;DHT22;11050;52.222;20.916;2023-02-22T13:41:16;4.10;90.80
21778;DHT22;11050;52.222;20.916;2023-02-22T13:50:23;3.90;90.20
21778;DHT22;11050;52.222;20.916;2023-02-22T13:52:55;3.90;90.50
21778;DHT22;11050;52.222;20.916;2023-02-22T13:55:30;3.80;90.50
21778;DHT22;11050;52.222;20.916;2023-02-22T13:58:04;3.80;90.50
21778;DHT22;11050;52.222;20.916;2023-02-22T14:00:55;3.70;90.30
21778;DHT22;11050;52.222;20.916;2023-02-22T14:03:37;3.60;90.60
21778;DHT22;11050;52.222;20.916;2023-02-22T14:06:36;3.60;90.90
21778;DHT22;11050;52.222;20.916;2023-02-22T14:09:12;3.60;91.10
21778;DHT22;11050;52.222;20.916;2023-02-22T14:11:46;3.50;90.90
21778;DHT22;11050;52.222;20.916;2023-02-22T14:14:14;3.50;91.00
21778;DHT22;11050;52.222;20.916;2023-02-22T14:16:42;3.40;91.30
21778;DHT22;11050;52.222;20.916;2023-02-22T14:19:18;3.40;91.50
21778;DHT22;11050;52.222;20.916;2023-02-22T14:22:14;3.40;91.70
21778;DHT22;11050;52.222;20.916;2023-02-22T14:24:52;3.30;91.60
21778;DHT22;11050;52.222;20.916;2023-02-22T14:27:18;3.30;91.70
21778;DHT22;11050;52.222;20.916;2023-02-22T14:29:52;3.20;91.50
21778;DHT22;11050;52.222;20.916;2023-02-22T14:32:20;3.10;91.70
21778;DHT22;11050;52.222;20.916;2023-02-22T14:34:57;3.00;91.80
21778;DHT22;11050;52.222;20.916;2023-02-22T14:37:31;3.00;91.80
21778;DHT22;11050;52.222;20.916;2023-02-22T14:43:05;2.90;91.90
21778;DHT22;11050;52.222;20.916;2023-02-22T14:45:46;2.90;91.90
21778;DHT22;11050;52.222;20.916;2023-02-22T14:48:38;2.80;91.80
21778;DHT22;11050;52.222;20.916;2023-02-22T14:51:23;2.80;91.90
21778;DHT22;11050;52.222;20.916;2023-02-22T14:54:02;2.80;91.90
21778;DHT22;11050;52.222;20.916;2023-02-22T14:59:25;2.70;92.00
21778;DHT22;11050;52.222;20.916;2023-02-22T15:02:11;2.70;91.80
21778;DHT22;11050;52.222;20.916;2023-02-22T15:04:38;2.60;91.90
21778;DHT22;11050;52.222;20.916;2023-02-22T15:07:28;2.50;91.80
21778;DHT22;11050;52.222;20.916;2023-02-22T15:10:17;2.50;92.00
21778;DHT22;11050;52.222;20.916;2023-02-22T15:15:37;2.40;92.10
21778;DHT22;11050;52.222;20.916;2023-02-22T15:18:23;2.40;92.10
21778;DHT22;11050;52.222;20.916;2023-02-22T15:21:19;2.30;91.90
21778;DHT22;11050;52.222;20.916;2023-02-22T15:23:51;2.20;91.70
21778;DHT22;11050;52.222;20.916;2023-02-22T15:26:30;2.20;92.10
21778;DHT22;11050;52.222;20.916;2023-02-22T15:29:09;2.20;92.10
21778;DHT22;11050;52.222;20.916;2023-02-22T15:31:39;2.10;92.10
21778;DHT22;11050;52.222;20.916;2023-02-22T15:36:51;2.10;91.90
21778;DHT22;11050;52.222;20.916;2023-02-22T15:39:24;2.00;92.00
21778;DHT22;11050;52.222;20.916;2023-02-22T15:42:09;2.00;92.10
21778;DHT22;11050;52.222;20.916;2023-02-22T15:44:50;2.00;92.20
21778;DHT22;11050;52.222;20.916;2023-02-22T15:47:24;2.00;92.40
21778;DHT22;11050;52.222;20.916;2023-02-22T15:50:24;2.00;92.50
21778;DHT22;11050;52.222;20.916;2023-02-22T15:53:01;1.90;92.40
21778;DHT22;11050;52.222;20.916;2023-02-22T15:55:42;1.90;92.40
21778;DHT22;11050;52.222;20.916;2023-02-22T15:58:20;1.90;92.60
21778;DHT22;11050;52.222;20.916;2023-02-22T16:00:56;1.80;92.70
21778;DHT22;11050;52.222;20.916;2023-02-22T16:03:23;1.80;92.60
21778;DHT22;11050;52.222;20.916;2023-02-22T16:05:57;1.70;92.80
21778;DHT22;11050;52.222;20.916;2023-02-22T16:08:29;1.70;92.80
21778;DHT22;11050;52.222;20.916;2023-02-22T16:11:09;1.70;93.00
21778;DHT22;11050;52.222;20.916;2023-02-22T16:13:51;1.70;93.30
21778;DHT22;11050;52.222;20.916;2023-02-22T16:18:51;1.70;93.80
21778;DHT22;11050;52.222;20.916;2023-02-22T16:21:20;1.70;93.50
21778;DHT22;11050;52.222;20.916;2023-02-22T16:23:48;1.70;93.60
21778;DHT22;11050;52.222;20.916;2023-02-22T16:26:32;1.70;93.60
21778;DHT22;11050;52.222;20.916;2023-02-22T16:29:03;1.70;93.60
21778;DHT22;11050;52.222;20.916;2023-02-22T16:31:36;1.70;93.70
21778;DHT22;11050;52.222;20.916;2023-02-22T16:34:05;1.70;93.70
21778;DHT22;11050;52.222;20.916;2023-02-22T16:36:41;1.70;93.70
21778;DHT22;11050;52.222;20.916;2023-02-22T16:41:49;1.70;93.70
21778;DHT22;11050;52.222;20.916;2023-02-22T16:44:16;1.70;93.60
21778;DHT22;11050;52.222;20.916;2023-02-22T16:46:42;1.70;93.60
21778;DHT22;11050;52.222;20.916;2023-02-22T16:49:10;1.70;93.60
21778;DHT22;11050;52.222;20.916;2023-02-22T16:51:52;1.70;93.60
21778;DHT22;11050;52.222;20.916;2023-02-22T16:54:30;1.70;93.70
21778;DHT22;11050;52.222;20.916;2023-02-22T16:57:02;1.70;93.70
21778;DHT22;11050;52.222;20.916;2023-02-22T16:59:35;1.70;93.70
21778;DHT22;11050;52.222;20.916;2023-02-22T17:02:04;1.70;93.80
21778;DHT22;11050;52.222;20.916;2023-02-22T17:04:32;1.70;93.80
21778;DHT22;11050;52.222;20.916;2023-02-22T17:06:58;1.70;93.80
21778;DHT22;11050;52.222;20.916;2023-02-22T17:09:24;1.70;93.80
21778;DHT22;11050;52.222;20.916;2023-02-22T17:11:52;1.70;93.70
21778;DHT22;11050;52.222;20.916;2023-02-22T17:14:21;1.70;93.80
21778;DHT22;11050;52.222;20.916;2023-02-22T17:16:49;1.70;93.80
21778;DHT22;11050;52.222;20.916;2023-02-22T17:19:17;1.70;93.90
21778;DHT22;11050;52.222;20.916;2023-02-22T17:21:45;1.80;93.90
21778;DHT22;11050;52.222;20.916;2023-02-22T17:24:13;1.80;94.10
21778;DHT22;11050;52.222;20.916;2023-02-22T17:26:41;1.70;94.00
21778;DHT22;11050;52.222;20.916;2023-02-22T17:29:07;1.70;93.80
21778;DHT22;11050;52.222;20.916;2023-02-22T17:31:33;1.80;93.90
21778;DHT22;11050;52.222;20.916;2023-02-22T17:34:01;1.70;93.90
21778;DHT22;11050;52.222;20.916;2023-02-22T17:36:29;1.70;93.90
21778;DHT22;11050;52.222;20.916;2023-02-22T17:38:56;1.70;94.00
21778;DHT22;11050;52.222;20.916;2023-02-22T17:41:23;1.70;93.90
21778;DHT22;11050;52.222;20.916;2023-02-22T17:43:49;1.70;93.90
21778;DHT22;11050;52.222;20.916;2023-02-22T17:46:15;1.70;93.90
21778;DHT22;11050;52.222;20.916;2023-02-22T17:48:43;1.70;93.90
21778;DHT22;11050;52.222;20.916;2023-02-22T17:51:10;1.70;93.80
21778;DHT22;11050;52.222;20.916;2023-02-22T17:53:37;1.70;93.90
21778;DHT22;11050;52.222;20.916;2023-02-22T17:56:11;1.70;94.00
21778;DHT22;11050;52.222;20.916;2023-02-22T17:58:41;1.80;94.10
21778;DHT22;11050;52.222;20.916;2023-02-22T18:01:18;1.80;94.10
21778;DHT22;11050;52.222;20.916;2023-02-22T18:03:49;1.80;94.00
21778;DHT22;11050;52.222;20.916;2023-02-22T18:06:18;1.80;94.10
21778;DHT22;11050;52.222;20.916;2023-02-22T18:08:46;1.80;94.10
21778;DHT22;11050;52.222;20.916;2023-02-22T18:11:13;1.80;94.10
21778;DHT22;11050;52.222;20.916;2023-02-22T18:13:40;1.80;94.10
21778;DHT22;11050;52.222;20.916;2023-02-22T18:16:06;1.80;94.20
21778;DHT22;11050;52.222;20.916;2023-02-22T18:18:34;1.80;94.20
21778;DHT22;11050;52.222;20.916;2023-02-22T18:21:00;1.80;94.20
21778;DHT22;11050;52.222;20.916;2023-02-22T18:23:28;1.80;94.20
21778;DHT22;11050;52.222;20.916;2023-02-22T18:25:58;1.80;94.20